KMHK/MHK METAR and TAF weather

Enter ICAO airport designator
Station Type Date Time Source
KMHK METAR 2019/08/22 03:52 UTC NOAA

KMHK 220352Z AUTO 06006KT 10SM SCT110 23/21 A3000 RMK AO2 SLP151 T02280206


Station Type Date Time Source
KMHK Decoded METAR 2019/08/22 03:52 UTC NOAA

Station name not available
Aug 21, 2019 - 11:52 PM EDT / 2019.08.22 0352 UTC
Wind: from the ENE (060 degrees) at 7 MPH (6 KT):0
Visibility: 10 mile(s):0
Sky conditions: partly cloudy
Temperature: 73.0 F (22.8 C)
Dew Point: 69.1 F (20.6 C)
Relative Humidity: 87%
Pressure (altimeter): 30 in. Hg (1015 hPa)
ob: KMHK 220352Z AUTO 06006KT 10SM SCT110 23/21 A3000 RMK AO2 SLP151 T02280206
cycle: 4

Station Type Date Time Source
KMHK TAF 2019/08/22 04:30 UTC NOAA

TAF
AMD KMHK 220427Z 2204/2224 05009KT P6SM -SHRA VCTS FEW025 BKN060CB
FM220600 05007KT 5SM -TSRA BKN022CB
FM221000 07005KT P6SM VCSH BKN015
FM221800 08006KT P6SM BKN050

Example: see airport list